sensor_id;sensor_type;location;lat;lon;timestamp;pressure;altitude;pressure_sealevel;temperature;humidity
48606;BME280;8482;54.396;18.590;2023-03-26T00:01:14;99783.53;;;8.06;75.88
48606;BME280;8482;54.396;18.590;2023-03-26T00:03:42;99781.84;;;8.05;75.63
48606;BME280;8482;54.396;18.590;2023-03-26T00:06:16;99783.41;;;8.08;75.68
48606;BME280;8482;54.396;18.590;2023-03-26T00:08:44;99771.97;;;8.07;75.77
48606;BME280;8482;54.396;18.590;2023-03-26T00:11:13;99780.75;;;8.08;75.98
48606;BME280;8482;54.396;18.590;2023-03-26T00:13:39;99778.13;;;8.08;75.73
48606;BME280;8482;54.396;18.590;2023-03-26T00:16:16;99772.97;;;8.06;75.91
48606;BME280;8482;54.396;18.590;2023-03-26T00:18:43;99772.13;;;8.06;75.70
48606;BME280;8482;54.396;18.590;2023-03-26T00:21:15;99770.19;;;8.08;76.01
48606;BME280;8482;54.396;18.590;2023-03-26T00:23:43;99770.34;;;8.06;76.52
48606;BME280;8482;54.396;18.590;2023-03-26T00:26:09;99769.63;;;8.04;76.05
48606;BME280;8482;54.396;18.590;2023-03-26T00:28:37;99769.34;;;8.07;76.33
48606;BME280;8482;54.396;18.590;2023-03-26T00:31:07;99771.88;;;8.09;76.33
48606;BME280;8482;54.396;18.590;2023-03-26T00:33:33;99770.75;;;8.11;76.46
48606;BME280;8482;54.396;18.590;2023-03-26T00:36:05;99757.69;;;8.10;76.16
48606;BME280;8482;54.396;18.590;2023-03-26T00:38:31;99762.00;;;8.11;76.69
48606;BME280;8482;54.396;18.590;2023-03-26T00:41:08;99762.97;;;8.10;76.50
48606;BME280;8482;54.396;18.590;2023-03-26T00:43:45;99751.44;;;8.11;76.51
48606;BME280;8482;54.396;18.590;2023-03-26T00:46:12;99756.03;;;8.09;76.57
48606;BME280;8482;54.396;18.590;2023-03-26T00:48:38;99762.97;;;8.10;76.38
48606;BME280;8482;54.396;18.590;2023-03-26T00:51:09;99744.75;;;8.07;76.44
48606;BME280;8482;54.396;18.590;2023-03-26T00:53:35;99740.41;;;8.06;76.42
48606;BME280;8482;54.396;18.590;2023-03-26T00:56:05;99755.56;;;8.04;76.79
48606;BME280;8482;54.396;18.590;2023-03-26T00:58:32;99745.13;;;8.02;76.75
48606;BME280;8482;54.396;18.590;2023-03-26T01:01:03;99764.44;;;8.03;76.66
48606;BME280;8482;54.396;18.590;2023-03-26T01:03:32;99752.91;;;8.04;76.96
48606;BME280;8482;54.396;18.590;2023-03-26T01:06:06;99760.00;;;8.03;76.69
48606;BME280;8482;54.396;18.590;2023-03-26T01:08:49;99752.19;;;8.02;76.93
48606;BME280;8482;54.396;18.590;2023-03-26T01:11:25;99747.88;;;8.01;76.82
48606;BME280;8482;54.396;18.590;2023-03-26T01:14:07;99754.72;;;8.03;77.05
48606;BME280;8482;54.396;18.590;2023-03-26T01:17:07;99740.69;;;8.03;77.19
48606;BME280;8482;54.396;18.590;2023-03-26T01:22:23;99743.91;;;8.06;77.08
48606;BME280;8482;54.396;18.590;2023-03-26T01:24:50;99738.63;;;8.06;77.21
48606;BME280;8482;54.396;18.590;2023-03-26T01:27:46;99739.47;;;8.07;76.86
48606;BME280;8482;54.396;18.590;2023-03-26T01:30:41;99736.81;;;8.07;77.01
48606;BME280;8482;54.396;18.590;2023-03-26T01:33:44;99733.94;;;8.10;77.09
48606;BME280;8482;54.396;18.590;2023-03-26T01:36:33;99738.50;;;8.08;77.05
48606;BME280;8482;54.396;18.590;2023-03-26T01:42:16;99720.81;;;8.08;77.17
48606;BME280;8482;54.396;18.590;2023-03-26T01:45:05;99725.28;;;8.08;77.30
48606;BME280;8482;54.396;18.590;2023-03-26T01:47:35;99720.16;;;8.06;77.41
48606;BME280;8482;54.396;18.590;2023-03-26T01:50:02;99719.53;;;8.03;77.45
48606;BME280;8482;54.396;18.590;2023-03-26T01:52:28;99716.19;;;8.01;77.21
48606;BME280;8482;54.396;18.590;2023-03-26T01:54:55;99715.50;;;7.98;77.42
48606;BME280;8482;54.396;18.590;2023-03-26T01:58:04;99712.56;;;7.92;77.93
48606;BME280;8482;54.396;18.590;2023-03-26T02:00:41;99704.88;;;7.89;77.42
48606;BME280;8482;54.396;18.590;2023-03-26T02:03:30;99707.91;;;7.84;77.83
48606;BME280;8482;54.396;18.590;2023-03-26T02:06:09;99711.53;;;7.83;78.18
48606;BME280;8482;54.396;18.590;2023-03-26T02:09:06;99701.34;;;7.78;78.50
48606;BME280;8482;54.396;18.590;2023-03-26T02:11:37;99705.78;;;7.78;78.34
48606;BME280;8482;54.396;18.590;2023-03-26T02:14:07;99697.03;;;7.77;78.30
48606;BME280;8482;54.396;18.590;2023-03-26T02:16:34;99703.03;;;7.79;78.73
48606;BME280;8482;54.396;18.590;2023-03-26T02:19:00;99700.50;;;7.78;78.80
48606;BME280;8482;54.396;18.590;2023-03-26T02:21:27;99694.78;;;7.73;79.12
48606;BME280;8482;54.396;18.590;2023-03-26T02:23:56;99704.09;;;7.77;79.05
48606;BME280;8482;54.396;18.590;2023-03-26T02:26:30;99707.47;;;7.79;79.04
48606;BME280;8482;54.396;18.590;2023-03-26T02:28:58;99703.72;;;7.81;78.92
48606;BME280;8482;54.396;18.590;2023-03-26T02:31:24;99694.81;;;7.82;79.33
48606;BME280;8482;54.396;18.590;2023-03-26T02:33:52;99692.19;;;7.82;79.01
48606;BME280;8482;54.396;18.590;2023-03-26T02:36:21;99700.56;;;7.88;79.04
48606;BME280;8482;54.396;18.590;2023-03-26T02:38:53;99696.25;;;7.87;79.02
48606;BME280;8482;54.396;18.590;2023-03-26T02:41:20;99698.50;;;7.91;79.20
48606;BME280;8482;54.396;18.590;2023-03-26T02:43:46;99692.25;;;7.92;79.19
48606;BME280;8482;54.396;18.590;2023-03-26T02:46:12;99697.53;;;7.92;78.71
48606;BME280;8482;54.396;18.590;2023-03-26T02:48:38;99686.00;;;7.93;78.99
48606;BME280;8482;54.396;18.590;2023-03-26T02:51:06;99684.34;;;7.92;78.80
48606;BME280;8482;54.396;18.590;2023-03-26T02:53:32;99678.09;;;7.93;79.29
48606;BME280;8482;54.396;18.590;2023-03-26T02:55:59;99673.91;;;7.91;79.38
48606;BME280;8482;54.396;18.590;2023-03-26T02:58:27;99672.94;;;7.92;79.01
48606;BME280;8482;54.396;18.590;2023-03-26T03:00:55;99665.03;;;7.92;79.06
48606;BME280;8482;54.396;18.590;2023-03-26T03:03:24;99661.09;;;7.86;79.36
48606;BME280;8482;54.396;18.590;2023-03-26T03:05:54;99667.53;;;7.93;78.99
48606;BME280;8482;54.396;18.590;2023-03-26T03:08:24;99667.25;;;7.96;79.01
48606;BME280;8482;54.396;18.590;2023-03-26T03:11:07;99667.25;;;7.96;79.01
48606;BME280;8482;54.396;18.590;2023-03-26T03:13:33;99662.69;;;7.98;79.19
48606;BME280;8482;54.396;18.590;2023-03-26T03:15:59;99669.66;;;8.00;79.07
48606;BME280;8482;54.396;18.590;2023-03-26T03:18:25;99672.41;;;7.98;79.11
48606;BME280;8482;54.396;18.590;2023-03-26T03:20:51;99664.75;;;7.95;78.79
48606;BME280;8482;54.396;18.590;2023-03-26T03:23:19;99667.25;;;7.96;78.83
48606;BME280;8482;54.396;18.590;2023-03-26T03:25:45;99663.66;;;7.97;79.03
48606;BME280;8482;54.396;18.590;2023-03-26T03:28:11;99665.34;;;7.98;79.38
48606;BME280;8482;54.396;18.590;2023-03-26T03:30:38;99660.88;;;7.99;79.41
48606;BME280;8482;54.396;18.590;2023-03-26T03:33:05;99658.22;;;7.99;79.30
48606;BME280;8482;54.396;18.590;2023-03-26T03:35:31;99657.41;;;7.98;79.17
48606;BME280;8482;54.396;18.590;2023-03-26T03:37:58;99659.91;;;8.00;79.34
48606;BME280;8482;54.396;18.590;2023-03-26T03:40:25;99657.84;;;8.04;79.45
48606;BME280;8482;54.396;18.590;2023-03-26T03:42:51;99656.88;;;8.05;79.54
48606;BME280;8482;54.396;18.590;2023-03-26T03:45:17;99655.91;;;8.06;79.21
48606;BME280;8482;54.396;18.590;2023-03-26T03:47:43;99663.69;;;8.07;79.33
48606;BME280;8482;54.396;18.590;2023-03-26T03:50:10;99652.16;;;8.08;79.32
48606;BME280;8482;54.396;18.590;2023-03-26T03:52:36;99652.03;;;8.10;79.36
48606;BME280;8482;54.396;18.590;2023-03-26T03:55:02;99656.78;;;8.16;79.15
48606;BME280;8482;54.396;18.590;2023-03-26T03:57:29;99659.56;;;8.15;79.07
48606;BME280;8482;54.396;18.590;2023-03-26T03:59:58;99656.78;;;8.16;79.24
48606;BME280;8482;54.396;18.590;2023-03-26T04:02:25;99658.34;;;8.19;79.17
48606;BME280;8482;54.396;18.590;2023-03-26T04:04:55;99657.22;;;8.21;79.25
48606;BME280;8482;54.396;18.590;2023-03-26T04:07:26;99659.59;;;8.24;79.29
48606;BME280;8482;54.396;18.590;2023-03-26T04:09:53;99655.72;;;8.28;78.77
48606;BME280;8482;54.396;18.590;2023-03-26T04:12:18;99652.94;;;8.30;78.82
48606;BME280;8482;54.396;18.590;2023-03-26T04:14:44;99650.88;;;8.34;78.66
48606;BME280;8482;54.396;18.590;2023-03-26T04:17:10;99648.22;;;8.34;78.47
48606;BME280;8482;54.396;18.590;2023-03-26T04:19:39;99656.88;;;8.36;78.43
48606;BME280;8482;54.396;18.590;2023-03-26T04:22:05;99655.75;;;8.38;78.41
48606;BME280;8482;54.396;18.590;2023-03-26T04:24:32;99648.53;;;8.40;78.41
48606;BME280;8482;54.396;18.590;2023-03-26T04:27:12;99652.69;;;8.43;78.25
48606;BME280;8482;54.396;18.590;2023-03-26T04:29:43;99650.06;;;8.43;77.98
48606;BME280;8482;54.396;18.590;2023-03-26T04:32:25;99644.78;;;8.43;78.24
48606;BME280;8482;54.396;18.590;2023-03-26T04:34:55;99647.16;;;8.46;77.99
48606;BME280;8482;54.396;18.590;2023-03-26T04:37:39;99641.88;;;8.46;78.12
48606;BME280;8482;54.396;18.590;2023-03-26T04:40:19;99638.41;;;8.46;78.08
48606;BME280;8482;54.396;18.590;2023-03-26T04:42:46;99643.81;;;8.44;78.01
48606;BME280;8482;54.396;18.590;2023-03-26T04:45:17;99639.97;;;8.48;78.17
48606;BME280;8482;54.396;18.590;2023-03-26T04:47:47;99639.22;;;8.46;78.52
48606;BME280;8482;54.396;18.590;2023-03-26T04:50:15;99638.25;;;8.47;78.41
48606;BME280;8482;54.396;18.590;2023-03-26T04:52:41;99632.97;;;8.47;78.72
48606;BME280;8482;54.396;18.590;2023-03-26T04:56:05;99634.41;;;8.51;78.54
48606;BME280;8482;54.396;18.590;2023-03-26T04:58:13;99634.28;;;8.53;78.63
48606;BME280;8482;54.396;18.590;2023-03-26T05:00:42;99636.75;;;8.54;78.75
48606;BME280;8482;54.396;18.590;2023-03-26T05:03:10;99636.66;;;8.56;79.06
48606;BME280;8482;54.396;18.590;2023-03-26T05:05:37;99643.34;;;8.60;79.09
48606;BME280;8482;54.396;18.590;2023-03-26T05:08:03;99644.03;;;8.62;79.13
48606;BME280;8482;54.396;18.590;2023-03-26T05:10:29;99642.34;;;8.61;79.18
48606;BME280;8482;54.396;18.590;2023-03-26T05:12:55;99646.53;;;8.64;78.90
48606;BME280;8482;54.396;18.590;2023-03-26T05:15:21;99640.28;;;8.65;79.18
48606;BME280;8482;54.396;18.590;2023-03-26T05:17:47;99636.53;;;8.67;79.77
48606;BME280;8482;54.396;18.590;2023-03-26T05:20:24;99635.56;;;8.68;79.82
48606;BME280;8482;54.396;18.590;2023-03-26T05:22:51;99641.66;;;8.69;79.83
48606;BME280;8482;54.396;18.590;2023-03-26T05:25:17;99641.56;;;8.70;79.85
48606;BME280;8482;54.396;18.590;2023-03-26T05:27:45;99642.25;;;8.72;79.81
48606;BME280;8482;54.396;18.590;2023-03-26T05:30:19;99636.97;;;8.72;79.59
48606;BME280;8482;54.396;18.590;2023-03-26T05:32:47;99649.06;;;8.75;79.58
48606;BME280;8482;54.396;18.590;2023-03-26T05:35:15;99650.75;;;8.76;79.50
48606;BME280;8482;54.396;18.590;2023-03-26T05:37:43;99652.69;;;8.74;79.69
48606;BME280;8482;54.396;18.590;2023-03-26T05:40:11;99651.72;;;8.75;79.62
48606;BME280;8482;54.396;18.590;2023-03-26T05:42:40;99658.13;;;8.72;79.37
48606;BME280;8482;54.396;18.590;2023-03-26T05:45:09;99652.81;;;8.72;79.61
48606;BME280;8482;54.396;18.590;2023-03-26T05:47:35;99652.69;;;8.74;79.35
48606;BME280;8482;54.396;18.590;2023-03-26T05:50:02;99652.69;;;8.74;79.44
48606;BME280;8482;54.396;18.590;2023-03-26T05:52:28;99642.53;;;8.69;79.04
48606;BME280;8482;54.396;18.590;2023-03-26T05:54:54;99654.78;;;8.70;79.14
48606;BME280;8482;54.396;18.590;2023-03-26T05:57:19;99644.47;;;8.67;79.46
48606;BME280;8482;54.396;18.590;2023-03-26T05:59:47;99638.63;;;8.64;79.04
48606;BME280;8482;54.396;18.590;2023-03-26T06:02:13;99649.19;;;8.64;78.78
48606;BME280;8482;54.396;18.590;2023-03-26T06:04:39;99649.19;;;8.64;78.48
48606;BME280;8482;54.396;18.590;2023-03-26T06:07:08;99642.63;;;8.68;78.62
48606;BME280;8482;54.396;18.590;2023-03-26T06:09:40;99645.28;;;8.68;78.19
48606;BME280;8482;54.396;18.590;2023-03-26T06:12:08;99649.75;;;8.67;77.65
48606;BME280;8482;54.396;18.590;2023-03-26T06:14:35;99639.16;;;8.67;77.33
48606;BME280;8482;54.396;18.590;2023-03-26T06:17:01;99639.03;;;8.69;77.55
48606;BME280;8482;54.396;18.590;2023-03-26T06:19:27;99649.47;;;8.70;77.54
48606;BME280;8482;54.396;18.590;2023-03-26T06:21:53;99644.75;;;8.74;77.57
48606;BME280;8482;54.396;18.590;2023-03-26T06:24:19;99649.88;;;8.76;77.29
48606;BME280;8482;54.396;18.590;2023-03-26T06:26:46;99650.59;;;8.78;77.55
48606;BME280;8482;54.396;18.590;2023-03-26T06:29:13;99650.47;;;8.79;77.57
48606;BME280;8482;54.396;18.590;2023-03-26T06:31:40;99655.34;;;8.84;76.99
48606;BME280;8482;54.396;18.590;2023-03-26T06:34:06;99645.75;;;8.83;76.58
48606;BME280;8482;54.396;18.590;2023-03-26T06:36:32;99649.22;;;8.83;76.55
48606;BME280;8482;54.396;18.590;2023-03-26T06:38:58;99652.25;;;8.79;76.51
48606;BME280;8482;54.396;18.590;2023-03-26T06:41:24;99649.47;;;8.80;76.88
48606;BME280;8482;54.396;18.590;2023-03-26T06:43:50;99651.16;;;8.81;76.77
48606;BME280;8482;54.396;18.590;2023-03-26T06:46:16;99653.78;;;8.81;77.18
48606;BME280;8482;54.396;18.590;2023-03-26T06:48:42;99658.09;;;8.82;77.39
48606;BME280;8482;54.396;18.590;2023-03-26T06:51:09;99652.00;;;8.82;77.26
48606;BME280;8482;54.396;18.590;2023-03-26T06:53:35;99662.44;;;8.83;76.65
48606;BME280;8482;54.396;18.590;2023-03-26T06:56:01;99658.81;;;8.84;76.76
48606;BME280;8482;54.396;18.590;2023-03-26T06:58:28;99658.25;;;8.81;76.42
48606;BME280;8482;54.396;18.590;2023-03-26T07:00:55;99658.00;;;8.84;76.30
48606;BME280;8482;54.396;18.590;2023-03-26T07:03:22;99658.25;;;8.81;76.27
48606;BME280;8482;54.396;18.590;2023-03-26T07:05:48;99654.50;;;8.83;76.23
48606;BME280;8482;54.396;18.590;2023-03-26T07:08:14;99652.97;;;8.81;76.16
48606;BME280;8482;54.396;18.590;2023-03-26T07:10:41;99653.78;;;8.81;75.86
48606;BME280;8482;54.396;18.590;2023-03-26T07:13:07;99652.00;;;8.82;75.91
48606;BME280;8482;54.396;18.590;2023-03-26T07:15:33;99656.72;;;8.78;76.03
48606;BME280;8482;54.396;18.590;2023-03-26T07:17:59;99660.34;;;8.77;76.23
48606;BME280;8482;54.396;18.590;2023-03-26T07:20:25;99655.06;;;8.77;76.04
48606;BME280;8482;54.396;18.590;2023-03-26T07:22:51;99659.38;;;8.78;75.89
48606;BME280;8482;54.396;18.590;2023-03-26T07:25:18;99663.56;;;8.81;76.04
48606;BME280;8482;54.396;18.590;2023-03-26T07:36:25;99648.97;;;8.96;75.25
48606;BME280;8482;54.396;18.590;2023-03-26T07:47:53;99666.66;;;9.15;74.51
48606;BME280;8482;54.396;18.590;2023-03-26T07:50:22;99669.84;;;9.19;74.74
48606;BME280;8482;54.396;18.590;2023-03-26T07:52:49;99670.41;;;9.23;74.18
48606;BME280;8482;54.396;18.590;2023-03-26T07:55:15;99673.75;;;9.25;74.35
48606;BME280;8482;54.396;18.590;2023-03-26T08:01:02;99676.66;;;9.31;74.49
48606;BME280;8482;54.396;18.590;2023-03-26T08:06:41;99684.72;;;9.40;73.85
48606;BME280;8482;54.396;18.590;2023-03-26T08:12:34;99686.28;;;9.42;72.15
48606;BME280;8482;54.396;18.590;2023-03-26T08:15:19;99696.03;;;9.42;71.50
48606;BME280;8482;54.396;18.590;2023-03-26T08:20:48;99690.72;;;9.42;70.33
48606;BME280;8482;54.396;18.590;2023-03-26T08:26:05;99677.91;;;9.47;70.81
48606;BME280;8482;54.396;18.590;2023-03-26T08:31:30;99686.56;;;9.59;70.48
48606;BME280;8482;54.396;18.590;2023-03-26T08:33:58;99687.22;;;9.61;69.14
48606;BME280;8482;54.396;18.590;2023-03-26T08:36:24;99680.00;;;9.63;68.76
48606;BME280;8482;54.396;18.590;2023-03-26T08:38:51;99676.63;;;9.61;69.12
48606;BME280;8482;54.396;18.590;2023-03-26T09:26:29;99690.78;;;10.47;67.10
48606;BME280;8482;54.396;18.590;2023-03-26T09:38:00;99708.72;;;10.63;66.26
48606;BME280;8482;54.396;18.590;2023-03-26T09:41:13;99712.50;;;10.60;66.28
48606;BME280;8482;54.396;18.590;2023-03-26T09:49:46;99724.75;;;10.71;66.70
48606;BME280;8482;54.396;18.590;2023-03-26T09:55:26;99699.97;;;10.52;67.43
48606;BME280;8482;54.396;18.590;2023-03-26T10:01:13;99728.31;;;10.52;68.58
48606;BME280;8482;54.396;18.590;2023-03-26T10:04:32;99725.09;;;10.48;68.52
48606;BME280;8482;54.396;18.590;2023-03-26T10:16:28;99727.56;;;10.22;70.00
48606;BME280;8482;54.396;18.590;2023-03-26T10:36:30;99724.09;;;10.11;71.84
48606;BME280;8482;54.396;18.590;2023-03-26T10:50:48;99727.47;;;10.51;70.83
48606;BME280;8482;54.396;18.590;2023-03-26T10:53:51;99725.84;;;10.68;70.82
48606;BME280;8482;54.396;18.590;2023-03-26T10:56:33;99726.75;;;10.87;70.55
48606;BME280;8482;54.396;18.590;2023-03-26T10:59:07;99721.22;;;10.98;68.75
48606;BME280;8482;54.396;18.590;2023-03-26T11:02:03;99724.41;;;11.02;67.08
48606;BME280;8482;54.396;18.590;2023-03-26T11:07:48;99745.06;;;10.80;65.29
48606;BME280;8482;54.396;18.590;2023-03-26T11:25:45;99754.16;;;10.50;67.35
48606;BME280;8482;54.396;18.590;2023-03-26T11:33:56;99747.53;;;10.54;67.68
48606;BME280;8482;54.396;18.590;2023-03-26T11:36:32;99752.13;;;10.62;67.75
48606;BME280;8482;54.396;18.590;2023-03-26T11:39:05;99759.06;;;10.72;67.34
48606;BME280;8482;54.396;18.590;2023-03-26T11:41:35;99750.09;;;10.83;67.13
48606;BME280;8482;54.396;18.590;2023-03-26T11:46:42;99759.53;;;11.14;66.03
48606;BME280;8482;54.396;18.590;2023-03-26T11:49:12;99747.09;;;11.32;65.07
48606;BME280;8482;54.396;18.590;2023-03-26T11:51:42;99744.31;;;11.52;65.04
48606;BME280;8482;54.396;18.590;2023-03-26T11:54:12;99737.84;;;11.73;64.05
48606;BME280;8482;54.396;18.590;2023-03-26T11:56:50;99749.59;;;11.88;63.23
48606;BME280;8482;54.396;18.590;2023-03-26T11:59:35;99746.44;;;12.11;62.42
48606;BME280;8482;54.396;18.590;2023-03-26T12:04:41;99746.44;;;12.29;62.10
48606;BME280;8482;54.396;18.590;2023-03-26T12:07:32;99746.53;;;12.19;61.72
48606;BME280;8482;54.396;18.590;2023-03-26T12:10:03;99749.28;;;12.09;61.62
48606;BME280;8482;54.396;18.590;2023-03-26T12:12:39;99756.75;;;12.06;62.24
48606;BME280;8482;54.396;18.590;2023-03-26T12:15:24;99760.59;;;12.11;63.03
48606;BME280;8482;54.396;18.590;2023-03-26T12:17:55;99749.38;;;12.26;63.32
48606;BME280;8482;54.396;18.590;2023-03-26T12:22:56;99762.66;;;12.52;61.94
48606;BME280;8482;54.396;18.590;2023-03-26T12:25:37;99743.22;;;12.52;59.15
48606;BME280;8482;54.396;18.590;2023-03-26T12:28:16;99763.97;;;12.48;59.35
48606;BME280;8482;54.396;18.590;2023-03-26T12:31:01;99746.38;;;12.55;58.38
48606;BME280;8482;54.396;18.590;2023-03-26T12:33:33;99751.91;;;12.62;57.74
48606;BME280;8482;54.396;18.590;2023-03-26T12:36:24;99750.50;;;12.84;58.07
48606;BME280;8482;54.396;18.590;2023-03-26T12:38:53;99746.59;;;13.13;57.29
48606;BME280;8482;54.396;18.590;2023-03-26T12:41:35;99747.78;;;13.27;57.11
48606;BME280;8482;54.396;18.590;2023-03-26T12:44:33;99756.94;;;13.16;56.34
48606;BME280;8482;54.396;18.590;2023-03-26T12:47:27;99760.66;;;12.89;56.64
48606;BME280;8482;54.396;18.590;2023-03-26T12:49:56;99754.22;;;12.57;56.50
48606;BME280;8482;54.396;18.590;2023-03-26T12:53:24;99773.16;;;12.27;57.12
48606;BME280;8482;54.396;18.590;2023-03-26T12:55:59;99776.38;;;12.13;57.13
48606;BME280;8482;54.396;18.590;2023-03-26T13:04:23;99786.34;;;11.57;57.68
48606;BME280;8482;54.396;18.590;2023-03-26T13:07:00;99776.19;;;11.70;57.95
48606;BME280;8482;54.396;18.590;2023-03-26T13:18:53;99790.69;;;11.40;56.52
48606;BME280;8482;54.396;18.590;2023-03-26T13:27:40;99790.50;;;16.01;46.97
48606;BME280;8482;54.396;18.590;2023-03-26T13:33:13;99798.84;;;18.34;40.88
48606;BME280;8482;54.396;18.590;2023-03-26T13:36:04;99794.81;;;19.22;37.65
48606;BME280;8482;54.396;18.590;2023-03-26T13:50:13;99805.03;;;13.83;45.80
48606;BME280;8482;54.396;18.590;2023-03-26T13:52:49;99807.53;;;13.16;47.41
48606;BME280;8482;54.396;18.590;2023-03-26T13:55:41;99815.66;;;12.72;48.50
48606;BME280;8482;54.396;18.590;2023-03-26T13:58:35;99818.34;;;12.27;50.25
48606;BME280;8482;54.396;18.590;2023-03-26T14:01:06;99820.72;;;12.92;50.85
48606;BME280;8482;54.396;18.590;2023-03-26T14:04:11;99809.84;;;14.04;48.33
48606;BME280;8482;54.396;18.590;2023-03-26T14:10:19;99811.41;;;18.27;41.23
48606;BME280;8482;54.396;18.590;2023-03-26T14:16:55;99809.84;;;24.36;29.57
48606;BME280;8482;54.396;18.590;2023-03-26T14:23:10;99788.22;;;28.25;23.65
48606;BME280;8482;54.396;18.590;2023-03-26T14:31:31;99798.72;;;26.97;24.16
48606;BME280;8482;54.396;18.590;2023-03-26T14:40:27;99787.91;;;28.65;21.59
48606;BME280;8482;54.396;18.590;2023-03-26T14:46:19;99779.50;;;31.89;18.49
48606;BME280;8482;54.396;18.590;2023-03-26T14:52:45;99784.69;;;30.19;19.85
48606;BME280;8482;54.396;18.590;2023-03-26T15:01:25;99771.88;;;35.92;14.67
48606;BME280;8482;54.396;18.590;2023-03-26T15:07:39;99777.66;;;36.04;13.47
48606;BME280;8482;54.396;18.590;2023-03-26T15:13:24;99789.03;;;31.57;16.63
48606;BME280;8482;54.396;18.590;2023-03-26T15:24:49;99801.09;;;23.07;23.26
48606;BME280;8482;54.396;18.590;2023-03-26T15:30:58;99815.28;;;19.23;28.48
48606;BME280;8482;54.396;18.590;2023-03-26T15:34:09;99811.81;;;17.81;31.01
48606;BME280;8482;54.396;18.590;2023-03-26T15:43:14;99820.44;;;14.62;37.18
48606;BME280;8482;54.396;18.590;2023-03-26T15:56:47;99830.31;;;12.76;42.19
48606;BME280;8482;54.396;18.590;2023-03-26T16:11:12;99858.81;;;10.06;48.69
48606;BME280;8482;54.396;18.590;2023-03-26T16:14:40;99866.06;;;9.75;49.79
48606;BME280;8482;54.396;18.590;2023-03-26T16:17:22;99877.69;;;9.43;50.24
48606;BME280;8482;54.396;18.590;2023-03-26T16:20:18;99891.34;;;9.07;50.80
48606;BME280;8482;54.396;18.590;2023-03-26T16:23:01;99881.34;;;8.80;51.23
48606;BME280;8482;54.396;18.590;2023-03-26T16:25:34;99877.06;;;8.57;51.78
48606;BME280;8482;54.396;18.590;2023-03-26T16:28:33;99883.16;;;8.37;52.23
48606;BME280;8482;54.396;18.590;2023-03-26T16:33:49;99888.53;;;8.14;51.88
48606;BME280;8482;54.396;18.590;2023-03-26T16:36:42;99878.97;;;8.02;51.87
48606;BME280;8482;54.396;18.590;2023-03-26T16:39:20;99886.94;;;7.90;52.11
48606;BME280;8482;54.396;18.590;2023-03-26T16:42:23;99909.53;;;7.83;52.25
48606;BME280;8482;54.396;18.590;2023-03-26T16:45:16;99890.81;;;7.75;52.71
48606;BME280;8482;54.396;18.590;2023-03-26T16:48:16;99902.13;;;7.65;52.41
48606;BME280;8482;54.396;18.590;2023-03-26T16:51:19;99903.97;;;7.54;52.80
48606;BME280;8482;54.396;18.590;2023-03-26T16:54:19;99916.94;;;7.45;53.30
48606;BME280;8482;54.396;18.590;2023-03-26T17:02:33;99916.81;;;7.24;54.04
48606;BME280;8482;54.396;18.590;2023-03-26T17:05:22;99930.28;;;7.21;54.16
48606;BME280;8482;54.396;18.590;2023-03-26T17:08:15;99924.13;;;7.20;54.41
48606;BME280;8482;54.396;18.590;2023-03-26T17:11:18;99939.38;;;7.17;54.41
48606;BME280;8482;54.396;18.590;2023-03-26T17:17:04;99937.31;;;6.98;53.42
48606;BME280;8482;54.396;18.590;2023-03-26T17:19:50;99946.25;;;6.84;53.82
48606;BME280;8482;54.396;18.590;2023-03-26T17:22:40;99942.44;;;6.77;53.92
48606;BME280;8482;54.396;18.590;2023-03-26T17:25:26;99947.44;;;6.68;54.12
48606;BME280;8482;54.396;18.590;2023-03-26T17:28:44;99954.13;;;6.61;53.83
48606;BME280;8482;54.396;18.590;2023-03-26T17:31:39;99952.66;;;6.57;54.37
48606;BME280;8482;54.396;18.590;2023-03-26T17:37:36;99963.91;;;6.48;54.74
48606;BME280;8482;54.396;18.590;2023-03-26T17:42:37;99978.38;;;6.42;54.78
48606;BME280;8482;54.396;18.590;2023-03-26T17:45:24;99964.94;;;6.34;54.47
48606;BME280;8482;54.396;18.590;2023-03-26T17:48:18;99965.50;;;6.26;54.58
48606;BME280;8482;54.396;18.590;2023-03-26T17:51:36;99978.38;;;6.18;54.69
48606;BME280;8482;54.396;18.590;2023-03-26T17:54:32;99976.81;;;6.15;55.52
48606;BME280;8482;54.396;18.590;2023-03-26T17:57:30;99974.41;;;6.12;55.37
48606;BME280;8482;54.396;18.590;2023-03-26T17:59:59;99982.41;;;6.10;55.28
48606;BME280;8482;54.396;18.590;2023-03-26T18:02:41;99965.16;;;6.06;55.72
48606;BME280;8482;54.396;18.590;2023-03-26T18:05:13;99976.41;;;6.08;55.47
48606;BME280;8482;54.396;18.590;2023-03-26T18:16:46;99975.47;;;6.09;55.71
48606;BME280;8482;54.396;18.590;2023-03-26T18:19:18;99981.34;;;6.13;55.65
48606;BME280;8482;54.396;18.590;2023-03-26T18:21:53;99984.94;;;6.12;55.80
48606;BME280;8482;54.396;18.590;2023-03-26T18:24:29;99989.25;;;6.13;55.67
48606;BME280;8482;54.396;18.590;2023-03-26T18:27:10;99980.53;;;6.12;55.69
48606;BME280;8482;54.396;18.590;2023-03-26T18:32:27;99985.16;;;6.09;55.83
48606;BME280;8482;54.396;18.590;2023-03-26T18:35:13;99978.84;;;6.11;56.05
48606;BME280;8482;54.396;18.590;2023-03-26T18:37:42;99985.06;;;6.10;55.64
48606;BME280;8482;54.396;18.590;2023-03-26T18:40:16;99981.81;;;6.07;56.10
48606;BME280;8482;54.396;18.590;2023-03-26T18:42:57;99983.50;;;6.08;56.58
48606;BME280;8482;54.396;18.590;2023-03-26T18:45:31;99975.06;;;6.03;56.67
48606;BME280;8482;54.396;18.590;2023-03-26T18:48:15;99971.59;;;6.02;56.49
48606;BME280;8482;54.396;18.590;2023-03-26T18:50:52;99982.13;;;6.02;56.68
48606;BME280;8482;54.396;18.590;2023-03-26T18:53:23;99969.94;;;6.01;56.61
48606;BME280;8482;54.396;18.590;2023-03-26T18:55:51;99963.81;;;6.01;56.78
48606;BME280;8482;54.396;18.590;2023-03-26T19:02:02;99972.00;;;5.96;57.11
48606;BME280;8482;54.396;18.590;2023-03-26T19:04:31;99960.66;;;5.95;57.63
48606;BME280;8482;54.396;18.590;2023-03-26T19:07:05;99959.94;;;5.93;57.53
48606;BME280;8482;54.396;18.590;2023-03-26T19:09:33;99960.97;;;5.91;58.26
48606;BME280;8482;54.396;18.590;2023-03-26T19:12:17;99967.31;;;5.88;58.15
48606;BME280;8482;54.396;18.590;2023-03-26T19:15:10;99956.03;;;5.86;58.15
48606;BME280;8482;54.396;18.590;2023-03-26T19:17:45;99965.19;;;5.93;58.27
48606;BME280;8482;54.396;18.590;2023-03-26T19:20:24;99950.44;;;5.91;58.55